Time;durP1;ratioP1;P1;durP2;ratioP2;P2;SDS_P1;SDS_P2;PMS_P1;PMS_P2;Temp;Humidity;BMP_temperature;BMP_pressure;BME280_temperature;BME280_humidity;BME280_pressure;Samples;Min_cycle;Max_cycle;Signal;HPM_P1;HPM_P2
2024/04/20 00:02:04;;;;;;;1.02;0.65;;;;;;;3.77;58.12;99348.59;5334734;26;20080;-79
2024/04/20 00:04:30;;;;;;;1.35;0.50;;;;;;;3.57;57.85;99330.38;5371565;26;20413;-81
2024/04/20 00:06:56;;;;;;;0.75;0.70;;;;;;;3.79;57.92;99356.38;5285770;26;20012;-81
2024/04/20 00:09:25;;;;;;;1.77;0.80;;;;;;;3.89;57.88;99377.94;5338873;26;20016;-79
2024/04/20 00:11:51;;;;;;;1.17;0.70;;;;;;;3.81;57.90;99370.13;5287241;26;20004;-81
2024/04/20 00:14:17;;;;;;;0.70;0.60;;;;;;;3.79;57.76;99376.97;5313624;26;20024;-80
2024/04/20 00:16:43;;;;;;;2.35;0.70;;;;;;;3.73;57.97;99374.31;5315486;26;20000;-80
2024/04/20 00:19:09;;;;;;;1.30;0.60;;;;;;;3.53;57.91;99348.34;5351469;26;20016;-80
2024/04/20 00:21:35;;;;;;;2.33;0.60;;;;;;;3.55;58.03;99367.22;5344992;26;22222;-80
2024/04/20 00:24:02;;;;;;;1.58;0.70;;;;;;;3.61;58.17;99401.63;5343311;26;20493;-81
2024/04/20 00:26:28;;;;;;;1.50;0.90;;;;;;;3.28;58.52;99376.31;5342966;26;20022;-80
2024/04/20 00:28:55;;;;;;;2.00;0.80;;;;;;;3.37;58.21;99373.84;5348669;26;20008;-78
2024/04/20 00:31:21;;;;;;;0.73;0.70;;;;;;;3.28;58.22;99374.59;5320710;26;20539;-79
2024/04/20 00:33:47;;;;;;;1.35;0.80;;;;;;;3.28;58.44;99384.88;5342395;26;20000;-79
2024/04/20 00:36:13;;;;;;;0.65;0.65;;;;;;;3.13;58.42;99364.94;5344204;26;20019;-78
2024/04/20 00:38:40;;;;;;;2.55;0.80;;;;;;;3.64;58.50;99435.97;5315588;26;20081;-79
2024/04/20 00:41:06;;;;;;;2.70;0.73;;;;;;;3.57;58.48;99416.97;5347084;26;20000;-80
2024/04/20 00:43:32;;;;;;;1.35;0.88;;;;;;;3.57;58.63;99407.56;5346452;26;20008;-79
2024/04/20 00:45:59;;;;;;;1.83;0.90;;;;;;;3.79;58.09;99448.16;5401291;26;20004;-80
2024/04/20 00:48:27;;;;;;;2.58;1.05;;;;;;;3.49;58.42;99409.16;5315539;26;20032;-78
2024/04/20 00:50:53;;;;;;;1.90;1.00;;;;;;;3.80;58.28;99461.06;5376419;26;20004;-80
2024/04/20 00:53:21;;;;;;;1.55;0.80;;;;;;;3.64;58.39;99423.09;5365921;26;20004;-78
2024/04/20 00:55:50;;;;;;;1.00;0.73;;;;;;;3.87;58.29;99454.28;5346967;26;20012;-80
2024/04/20 00:58:19;;;;;;;4.30;0.90;;;;;;;3.72;58.37;99447.22;5383030;26;20026;-78
2024/04/20 01:00:47;;;;;;;2.08;0.90;;;;;;;3.50;58.17;99410.03;5347231;26;20003;-79
2024/04/20 01:03:13;;;;;;;1.00;0.90;;;;;;;3.70;58.32;99465.22;5324179;26;20000;-79
2024/04/20 01:05:40;;;;;;;1.77;1.10;;;;;;;3.56;58.31;99457.31;5323218;26;20008;-80
2024/04/20 01:08:06;;;;;;;1.27;1.00;;;;;;;3.52;58.47;99460.66;5350652;26;20004;-83
2024/04/20 01:10:33;;;;;;;2.47;1.00;;;;;;;3.44;58.59;99451.97;5347232;26;20019;-79
2024/04/20 01:13:02;;;;;;;1.75;1.10;;;;;;;3.12;58.56;99406.94;5319909;26;20143;-78
2024/04/20 01:15:30;;;;;;;6.28;4.53;;;;;;;3.30;58.71;99438.94;5372522;26;20056;-79
2024/04/20 01:17:56;;;;;;;1.42;1.00;;;;;;;3.41;58.84;99455.38;5374506;26;20116;-79
2024/04/20 01:20:25;;;;;;;2.63;1.02;;;;;;;3.44;58.95;99450.28;5330990;26;20051;-78
2024/04/20 01:22:51;;;;;;;1.80;1.13;;;;;;;3.72;58.52;99488.38;5315935;26;20369;-77
2024/04/20 01:25:21;;;;;;;2.78;0.98;;;;;;;3.52;58.59;99454.66;5376301;26;19995;-79
2024/04/20 01:27:47;;;;;;;3.38;1.33;;;;;;;3.64;58.49;99493.44;5343533;26;20007;-79
2024/04/20 01:30:15;;;;;;;3.10;1.45;;;;;;;3.54;58.77;99470.97;5329923;26;20090;-80
2024/04/20 01:32:41;;;;;;;1.63;1.35;;;;;;;3.40;58.88;99450.22;5347443;26;20023;-80
2024/04/20 01:35:07;;;;;;;2.15;1.33;;;;;;;3.53;58.98;99485.56;5372055;26;20036;-78
2024/04/20 01:37:34;;;;;;;2.05;1.17;;;;;;;3.39;58.72;99462.19;5344498;26;20019;-78
2024/04/20 01:40:00;;;;;;;2.63;1.30;;;;;;;3.65;58.79;99512.28;5329252;26;20011;-80
2024/04/20 01:42:27;;;;;;;1.70;1.05;;;;;;;3.47;58.96;99500.88;5367232;26;20065;-78
2024/04/20 01:44:53;;;;;;;2.67;1.20;;;;;;;3.56;58.73;99526.78;5370980;26;20022;-80
2024/04/20 01:47:19;;;;;;;1.75;1.20;;;;;;;3.50;58.94;99524.09;5342901;26;20028;-79
2024/04/20 01:49:48;;;;;;;2.40;1.20;;;;;;;3.47;58.60;99540.38;5375731;26;20014;-79
2024/04/20 01:52:14;;;;;;;1.80;1.00;;;;;;;3.45;58.72;99551.44;5337607;26;20004;-80
2024/04/20 01:54:40;;;;;;;4.00;1.60;;;;;;;3.05;59.09;99478.81;5340047;26;20007;-78
2024/04/20 01:57:06;;;;;;;2.67;1.50;;;;;;;3.20;59.06;99525.31;5343999;26;20470;-77
2024/04/20 01:59:34;;;;;;;1.08;0.98;;;;;;;3.06;59.10;99511.38;5366534;26;20049;-79
2024/04/20 02:02:01;;;;;;;2.08;1.15;;;;;;;3.29;59.20;99566.66;5312828;26;20016;-79
2024/04/20 02:04:30;;;;;;;1.70;1.20;;;;;;;3.04;58.92;99541.34;5315927;26;20006;-78
2024/04/20 02:06:59;;;;;;;3.15;1.15;;;;;;;2.96;58.80;99547.22;5401515;26;20833;-79
2024/04/20 02:09:25;;;;;;;1.88;1.20;;;;;;;3.05;59.35;99573.94;5339359;26;20047;-80
2024/04/20 02:11:52;;;;;;;2.00;1.20;;;;;;;3.00;59.69;99582.41;5343289;26;20004;-80
2024/04/20 02:14:18;;;;;;;1.45;1.08;;;;;;;2.67;59.86;99533.81;5312579;26;20045;-79
2024/04/20 02:16:44;;;;;;;3.92;1.25;;;;;;;2.71;59.94;99549.34;5344472;26;20017;-80
2024/04/20 02:19:11;;;;;;;2.22;1.40;;;;;;;2.81;59.85;99567.50;5366722;26;20003;-81
2024/04/20 02:21:37;;;;;;;1.48;1.00;;;;;;;2.55;59.52;99542.16;5313174;26;20029;-82
2024/04/20 02:24:03;;;;;;;2.25;1.27;;;;;;;2.79;60.01;99579.44;5341783;26;20007;-78
2024/04/20 02:26:30;;;;;;;2.10;1.50;;;;;;;2.54;60.42;99548.13;5316860;26;20498;-79
2024/04/20 02:28:56;;;;;;;1.80;1.50;;;;;;;2.11;60.48;99482.25;5369749;26;20682;-81
2024/04/20 02:31:23;;;;;;;2.45;1.30;;;;;;;2.89;60.65;99617.34;5346802;26;20501;-82
2024/04/20 02:33:49;;;;;;;2.85;1.30;;;;;;;2.66;60.79;99579.22;5345145;26;20008;-79
2024/04/20 02:36:16;;;;;;;1.30;1.17;;;;;;;2.85;60.58;99607.84;5342073;26;20097;-79
2024/04/20 02:38:43;;;;;;;2.90;1.15;;;;;;;2.83;60.73;99609.50;5379075;26;20012;-80
2024/04/20 02:41:09;;;;;;;1.92;1.20;;;;;;;2.85;60.73;99631.84;5345558;26;20071;-80
2024/04/20 02:43:35;;;;;;;2.58;1.35;;;;;;;2.66;61.01;99604.03;5346937;26;20055;-79
2024/04/20 02:46:04;;;;;;;3.42;1.63;;;;;;;2.64;61.08;99600.59;5327215;26;20004;-82
2024/04/20 02:48:33;;;;;;;2.95;1.10;;;;;;;2.80;61.00;99627.44;5377668;26;20080;-83
2024/04/20 02:50:59;;;;;;;1.55;1.33;;;;;;;2.08;61.01;99513.00;5333123;26;20008;-79
2024/04/20 02:53:25;;;;;;;2.90;1.30;;;;;;;2.83;61.37;99642.94;5377079;26;20028;-81
2024/04/20 02:55:51;;;;;;;2.40;1.45;;;;;;;2.77;61.35;99627.38;5342366;26;20091;-79
2024/04/20 02:58:18;;;;;;;1.55;1.10;;;;;;;2.44;61.41;99570.19;5350971;26;20073;-80
2024/04/20 03:00:55;;;;;;;2.47;1.20;;;;;;;2.88;61.47;99640.44;5407735;26;20003;-79
2024/04/20 03:03:21;;;;;;;1.52;1.23;;;;;;;3.00;61.50;99662.09;5350294;26;20014;-80
2024/04/20 03:05:50;;;;;;;2.95;1.90;;;;;;;2.35;61.02;99570.88;5344066;26;20171;-79
2024/04/20 03:08:16;;;;;;;1.48;1.30;;;;;;;2.71;61.53;99628.13;5348776;26;20015;-81
2024/04/20 03:10:45;;;;;;;5.35;1.40;;;;;;;2.67;61.37;99614.34;5374144;26;20003;-80
2024/04/20 03:13:12;;;;;;;1.85;1.27;;;;;;;2.80;61.62;99624.88;5319640;26;20003;-81
2024/04/20 03:15:40;;;;;;;2.13;1.48;;;;;;;3.30;61.83;99696.97;5348695;26;20075;-80
2024/04/20 03:18:07;;;;;;;2.70;1.52;;;;;;;2.98;61.83;99624.38;5373628;26;19996;-81
2024/04/20 03:20:34;;;;;;;2.00;1.33;;;;;;;3.35;61.61;99668.75;5352596;26;20007;-80
2024/04/20 03:23:01;;;;;;;7.40;1.33;;;;;;;3.52;61.36;99683.66;5317942;26;20053;-81
2024/04/20 03:25:28;;;;;;;3.28;1.60;;;;;;;3.61;61.58;99679.53;5370245;26;20007;-81
2024/04/20 03:27:54;;;;;;;3.05;1.52;;;;;;;3.69;61.55;99673.63;5343981;26;20015;-80
2024/04/20 03:30:26;;;;;;;4.50;1.60;;;;;;;3.63;61.47;99642.69;5347335;26;19999;-79
2024/04/20 03:32:55;;;;;;;4.85;1.85;;;;;;;4.01;61.22;99693.91;5375102;26;20041;-81
2024/04/20 03:35:21;;;;;;;3.40;1.58;;;;;;;4.06;61.24;99680.25;5402248;26;20018;-81
2024/04/20 03:37:50;;;;;;;1.95;1.35;;;;;;;4.13;61.30;99677.78;5372087;26;20008;-79
2024/04/20 03:40:21;;;;;;;3.05;1.48;;;;;;;4.35;61.33;99705.59;5348429;26;20011;-80
2024/04/20 03:42:48;;;;;;;4.07;1.50;;;;;;;4.37;60.90;99682.44;5348747;26;20003;-80
2024/04/20 03:45:14;;;;;;;3.97;1.60;;;;;;;4.53;60.56;99696.41;5345164;26;20011;-80
2024/04/20 03:47:40;;;;;;;2.50;1.45;;;;;;;4.83;60.58;99731.19;5348442;26;20008;-80
2024/04/20 03:50:08;;;;;;;2.67;1.50;;;;;;;4.78;60.56;99682.13;5348367;26;20044;-81
2024/04/20 03:52:34;;;;;;;1.45;1.25;;;;;;;5.28;60.19;99726.56;5349992;26;20011;-80
2024/04/20 03:55:00;;;;;;;2.97;1.40;;;;;;;5.59;60.23;99708.84;5371841;26;20027;-78
2024/04/20 03:57:29;;;;;;;1.48;1.20;;;;;;;5.73;59.90;99699.50;5341140;26;20004;-80
2024/04/20 03:59:59;;;;;;;2.13;1.45;;;;;;;6.07;59.16;99727.38;5344818;26;20032;-79
2024/04/20 04:02:33;;;;;;;1.77;1.20;;;;;;;5.66;59.16;99658.13;5353421;26;20004;-80
2024/04/20 04:04:59;;;;;;;2.40;1.40;;;;;;;5.96;58.76;99682.50;5400215;26;20098;-78
2024/04/20 04:07:28;;;;;;;2.38;1.50;;;;;;;6.13;58.13;99703.31;5342010;26;20039;-80
2024/04/20 04:09:54;;;;;;;1.77;1.23;;;;;;;6.30;57.83;99761.16;5348954;26;20043;-79
2024/04/20 04:12:21;;;;;;;1.60;1.17;;;;;;;6.02;58.12;99718.72;5311109;26;20023;-81
2024/04/20 04:14:47;;;;;;;2.08;1.25;;;;;;;6.12;57.67;99737.75;5310279;26;20000;-79
2024/04/20 04:17:13;;;;;;;1.63;1.20;;;;;;;5.98;57.86;99728.16;5342746;26;20009;-80
2024/04/20 04:19:39;;;;;;;1.70;1.27;;;;;;;6.13;57.56;99762.72;5361288;26;20470;-82
2024/04/20 04:22:08;;;;;;;2.63;1.40;;;;;;;5.95;57.74;99733.28;5321620;26;20038;-80
2024/04/20 04:24:35;;;;;;;3.47;1.17;;;;;;;6.21;56.69;99768.84;5371463;26;19996;-81
2024/04/20 04:27:12;;;;;;;4.55;1.25;;;;;;;5.98;57.27;99728.16;5313917;26;20027;-78
2024/04/20 04:29:40;;;;;;;2.83;1.23;;;;;;;6.00;57.09;99712.69;5333323;26;20016;-79
2024/04/20 04:32:09;;;;;;;4.65;1.80;;;;;;;6.33;57.22;99750.84;5349031;26;20028;-78
2024/04/20 04:34:38;;;;;;;3.20;1.58;;;;;;;6.50;57.03;99772.50;5342614;26;20035;-78
2024/04/20 04:37:04;;;;;;;3.05;1.42;;;;;;;6.72;56.94;99778.72;5373590;26;20000;-80
2024/04/20 04:39:31;;;;;;;4.85;1.42;;;;;;;6.62;56.58;99729.50;5306235;26;20457;-80
2024/04/20 04:42:00;;;;;;;2.45;1.30;;;;;;;6.98;56.04;99763.34;5341344;26;20023;-80
2024/04/20 04:44:29;;;;;;;3.50;1.42;;;;;;;7.33;55.99;99792.81;5318594;26;20014;-81
2024/04/20 04:46:58;;;;;;;4.07;1.20;;;;;;;7.36;55.71;99785.94;5320587;26;20019;-84
2024/04/20 04:49:24;;;;;;;1.90;1.27;;;;;;;6.99;55.46;99720.19;5344744;26;20015;-80
2024/04/20 04:51:50;;;;;;;3.50;1.30;;;;;;;7.16;55.60;99731.50;5338558;26;20018;-78
2024/04/20 04:54:16;;;;;;;2.13;1.50;;;;;;;7.52;54.95;99771.31;5337694;26;20062;-81
2024/04/20 04:56:47;;;;;;;1.73;1.30;;;;;;;7.62;54.83;99767.03;5367344;26;20007;-77
2024/04/20 04:59:20;;;;;;;5.75;1.42;;;;;;;7.60;54.58;99727.31;5341329;26;20368;-77
2024/04/20 05:01:54;;;;;;;3.50;1.50;;;;;;;7.87;54.31;99764.50;5341534;26;20010;-77
2024/04/20 05:04:21;;;;;;;;;;;;;;;8.10;54.41;99795.59;5370041;26;20022;-79
2024/04/20 05:06:49;;;;;;;2.30;1.50;;;;;;;7.92;54.13;99746.34;5331150;26;19953;-78
2024/04/20 05:09:17;;;;;;;2.72;1.20;;;;;;;8.17;53.94;99793.03;5347071;26;20130;-79
2024/04/20 05:11:43;;;;;;;2.65;1.33;;;;;;;7.90;53.82;99750.66;5330886;26;20003;-80
2024/04/20 05:14:09;;;;;;;2.25;1.38;;;;;;;8.14;53.50;99784.38;5407065;26;20112;-77
2024/04/20 05:16:36;;;;;;;2.85;1.25;;;;;;;7.99;53.64;99751.53;5356841;26;20019;-79
2024/04/20 05:19:05;;;;;;;3.90;1.15;;;;;;;7.96;53.18;99755.88;5354356;26;20051;-79
2024/04/20 05:21:31;;;;;;;6.55;1.15;;;;;;;8.29;53.09;99808.59;5364955;26;20458;-79
2024/04/20 05:23:59;;;;;;;2.83;1.60;;;;;;;8.16;53.36;99773.16;5337485;26;20023;-79
2024/04/20 05:26:28;;;;;;;2.70;1.50;;;;;;;8.20;52.98;99775.75;5341202;26;20056;-78
2024/04/20 05:28:55;;;;;;;2.92;1.30;;;;;;;8.54;52.66;99819.88;5359462;26;20151;-77
2024/04/20 05:31:21;;;;;;;5.70;1.75;;;;;;;8.07;52.73;99767.09;5331714;26;20039;-78
2024/04/20 05:33:47;;;;;;;2.20;1.52;;;;;;;8.39;52.71;99838.84;5305515;26;20012;-79
2024/04/20 05:36:14;;;;;;;2.28;1.38;;;;;;;8.19;52.70;99815.50;5364700;26;20373;-82
2024/04/20 05:38:40;;;;;;;3.08;1.65;;;;;;;8.44;52.85;99846.63;5379647;26;20016;-80
2024/04/20 05:41:06;;;;;;;3.03;1.50;;;;;;;8.36;53.06;99775.75;5322751;26;20018;-81
2024/04/20 05:43:33;;;;;;;1.83;1.40;;;;;;;9.01;52.80;99841.44;5365132;26;20023;-82
2024/04/20 05:45:59;;;;;;;3.13;1.60;;;;;;;9.16;52.49;99848.34;5387213;26;20004;-78
2024/04/20 05:48:28;;;;;;;3.17;1.40;;;;;;;8.84;52.13;99801.69;5339634;26;20023;-80
2024/04/20 05:50:55;;;;;;;2.13;1.55;;;;;;;9.02;52.12;99835.38;5362681;26;20008;-82
2024/04/20 05:53:23;;;;;;;2.65;1.73;;;;;;;8.73;51.65;99775.75;5345083;26;20474;-79
2024/04/20 05:55:51;;;;;;;2.00;1.45;;;;;;;9.18;51.74;99797.28;5342552;26;20015;-83
2024/04/20 05:58:22;;;;;;;2.50;1.63;;;;;;;10.27;53.06;99757.69;5370385;26;21688;-83
2024/04/20 06:00:49;;;;;;;3.95;1.95;;;;;;;11.92;51.84;99787.97;5392829;26;20363;-79
2024/04/20 06:03:18;;;;;;;5.93;1.67;;;;;;;13.01;49.73;99846.25;5322697;26;20015;-81
2024/04/20 06:05:47;;;;;;;2.88;1.80;;;;;;;13.24;48.19;99822.31;5336341;26;20050;-80
2024/04/20 06:08:13;;;;;;;4.35;1.73;;;;;;;12.85;47.10;99799.53;5345536;26;20200;-80
2024/04/20 06:10:40;;;;;;;2.55;1.83;;;;;;;12.27;47.33;99783.97;5315500;26;20000;-77
2024/04/20 06:13:06;;;;;;;4.03;1.83;;;;;;;12.21;47.30;99831.03;5325387;26;20005;-80
2024/04/20 06:15:40;;;;;;;1.65;1.30;;;;;;;11.58;46.47;99836.19;5330835;26;20358;-77
2024/04/20 06:18:08;;;;;;;5.57;1.90;;;;;;;11.08;46.83;99838.50;5334484;26;20000;-76
2024/04/20 06:20:37;;;;;;;3.05;1.67;;;;;;;10.98;48.33;99860.28;5370834;26;20077;-80
2024/04/20 06:23:07;;;;;;;2.85;1.58;;;;;;;10.97;48.16;99890.69;5323339;26;20000;-78
2024/04/20 06:25:34;;;;;;;3.15;1.80;;;;;;;10.80;48.23;99870.00;5373830;26;20000;-79
2024/04/20 06:28:00;;;;;;;4.32;1.70;;;;;;;10.43;47.99;99831.28;5349733;26;20039;-78
2024/04/20 06:30:27;;;;;;;3.15;1.58;;;;;;;10.47;48.10;99847.72;5316113;26;20011;-78
2024/04/20 06:32:53;;;;;;;3.60;1.50;;;;;;;10.69;48.61;99840.63;5351439;26;19999;-78
2024/04/20 06:35:19;;;;;;;1.95;1.40;;;;;;;11.32;47.88;99893.81;5332554;26;19996;-78
2024/04/20 06:37:55;;;;;;;2.45;1.65;;;;;;;11.50;47.67;99876.25;5374311;26;20065;-74
2024/04/20 06:40:24;;;;;;;6.15;1.73;;;;;;;11.66;47.91;99850.88;5336335;26;19996;-79
2024/04/20 06:42:50;;;;;;;8.90;1.92;;;;;;;12.28;47.36;99878.75;5378977;26;20012;-79
2024/04/20 06:45:17;;;;;;;4.93;2.20;;;;;;;12.32;47.26;99830.88;5375339;26;20076;-78
2024/04/20 06:47:45;;;;;;;3.22;1.85;;;;;;;12.63;46.70;99883.44;5321342;26;20005;-79
2024/04/20 06:50:16;;;;;;;8.70;2.40;;;;;;;13.08;45.87;99856.56;5368881;26;20020;-77
2024/04/20 06:52:45;;;;;;;3.88;1.60;;;;;;;13.10;45.59;99882.66;5347394;26;20072;-78
2024/04/20 06:55:11;;;;;;;3.90;1.80;;;;;;;12.72;45.35;99907.66;5345084;26;20034;-79
2024/04/20 06:57:38;;;;;;;9.88;2.38;;;;;;;12.40;45.82;99864.66;5373877;26;20526;-80
2024/04/20 07:00:07;;;;;;;4.43;1.70;;;;;;;12.96;45.71;99924.69;5373536;26;20007;-77
2024/04/20 07:02:33;;;;;;;1.83;1.42;;;;;;;13.26;44.92;99923.31;5342752;26;20098;-78
2024/04/20 07:05:00;;;;;;;4.93;1.50;;;;;;;13.46;44.65;99910.78;5335192;26;20008;-77
2024/04/20 07:07:34;;;;;;;1.70;1.40;;;;;;;13.13;44.85;99861.69;5368449;26;20011;-76
2024/04/20 07:10:16;;;;;;;1.92;1.65;;;;;;;13.59;44.68;99866.94;5364462;26;20005;-79
2024/04/20 07:12:45;;;;;;;3.03;1.67;;;;;;;14.05;44.03;99915.69;5370445;26;19995;-76
2024/04/20 07:15:14;;;;;;;3.15;1.60;;;;;;;14.20;43.86;99921.50;5347767;26;20011;-77
2024/04/20 07:17:40;;;;;;;4.28;1.50;;;;;;;14.74;43.49;99862.69;5311826;26;20004;-75
2024/04/20 07:20:07;;;;;;;4.85;1.50;;;;;;;15.63;42.50;99896.13;5403523;26;20000;-74
2024/04/20 07:22:34;;;;;;;4.25;1.58;;;;;;;16.80;41.80;99843.56;5312533;26;20022;-74
2024/04/20 07:25:00;;;;;;;3.88;1.42;;;;;;;18.94;40.29;99890.00;5347165;26;20014;-76
2024/04/20 07:27:27;;;;;;;5.72;1.52;;;;;;;20.23;38.37;99873.72;5367831;26;20019;-75
2024/04/20 07:29:55;;;;;;;2.70;1.42;;;;;;;22.21;35.68;99900.66;5340836;26;20115;-75
2024/04/20 07:32:21;;;;;;;2.67;1.20;;;;;;;22.31;31.94;99832.06;5374063;26;20375;-76
2024/04/20 07:34:48;;;;;;;5.95;1.48;;;;;;;22.65;31.90;99898.25;5339349;26;20012;-78
2024/04/20 07:37:14;;;;;;;4.57;1.35;;;;;;;23.70;30.74;99822.09;5310908;26;20023;-79
2024/04/20 07:39:40;;;;;;;7.03;3.22;;;;;;;23.59;29.14;99867.91;5370274;26;20008;-76
2024/04/20 07:42:06;;;;;;;5.47;1.60;;;;;;;23.43;30.28;99823.75;5339514;26;20080;-75
2024/04/20 07:44:32;;;;;;;5.15;2.17;;;;;;;24.40;28.59;99884.97;5366014;26;20003;-75
2024/04/20 07:47:02;;;;;;;10.95;2.22;;;;;;;25.46;28.33;99894.81;5361302;26;20006;-75
2024/04/20 07:49:31;;;;;;;6.68;1.98;;;;;;;25.40;26.86;99895.19;5339185;26;20073;-75
2024/04/20 07:51:58;;;;;;;4.80;1.50;;;;;;;23.34;27.58;99880.06;5343548;26;20167;-76
2024/04/20 07:54:24;;;;;;;9.07;1.80;;;;;;;22.85;28.45;99927.09;5366204;26;20421;-78
2024/04/20 07:56:50;;;;;;;4.45;1.60;;;;;;;25.08;28.04;99900.91;5345282;26;20010;-76
2024/04/20 07:59:16;;;;;;;6.35;1.20;;;;;;;26.81;26.45;99919.00;5316797;26;20458;-76
2024/04/20 08:01:45;;;;;;;1.00;0.90;;;;;;;28.38;24.06;99903.19;5343475;26;20050;-75
2024/04/20 08:04:14;;;;;;;3.38;1.23;;;;;;;27.81;22.13;99907.75;5344918;26;20083;-77
2024/04/20 08:06:40;;;;;;;2.78;1.42;;;;;;;26.85;22.65;99910.63;5342411;26;20996;-76
2024/04/20 08:09:09;;;;;;;6.00;1.45;;;;;;;27.84;22.62;99886.13;5309338;26;19999;-78
2024/04/20 08:11:37;;;;;;;1.30;1.20;;;;;;;28.17;21.35;99862.16;5340652;26;20471;-76
2024/04/20 08:14:03;;;;;;;2.58;1.50;;;;;;;27.85;21.51;99893.19;5340779;26;19999;-77
2024/04/20 08:16:29;;;;;;;3.85;1.20;;;;;;;25.31;21.75;99901.13;5346209;26;20000;-77
2024/04/20 08:18:55;;;;;;;8.10;2.00;;;;;;;23.28;23.04;99955.59;5366267;26;20004;-78
2024/04/20 08:21:21;;;;;;;3.05;1.90;;;;;;;21.55;24.75;99981.00;5343591;26;20284;-78
2024/04/20 08:23:50;;;;;;;4.25;1.90;;;;;;;20.84;26.10;99998.63;5346166;26;20016;-80
2024/04/20 08:26:18;;;;;;;3.33;1.75;;;;;;;20.80;26.83;99952.09;5405908;26;20018;-81
2024/04/20 08:28:46;;;;;;;3.25;1.63;;;;;;;21.90;26.66;99906.78;5348241;26;20119;-82
2024/04/20 08:31:12;;;;;;;1.83;1.23;;;;;;;24.08;24.82;99956.16;5340387;26;20026;-79
2024/04/20 08:33:39;;;;;;;1.95;1.15;;;;;;;25.92;23.48;99914.66;5338864;26;20028;-79
2024/04/20 08:36:05;;;;;;;2.40;1.20;;;;;;;27.01;21.83;99912.13;5366674;26;20004;-81
2024/04/20 08:38:31;;;;;;;3.20;1.40;;;;;;;26.33;21.58;99927.81;5315944;26;20715;-78
2024/04/20 08:41:03;;;;;;;2.65;1.27;;;;;;;26.56;21.28;99894.94;5370076;26;20008;-79
2024/04/20 08:43:30;;;;;;;3.72;1.52;;;;;;;26.11;21.85;99902.66;5368860;26;20010;-77
2024/04/20 08:46:02;;;;;;;1.33;1.10;;;;;;;27.73;21.24;99894.13;5368245;26;20003;-76
2024/04/20 08:48:30;;;;;;;3.40;1.70;;;;;;;29.40;18.87;99963.50;5371041;26;19995;-77
2024/04/20 08:51:04;;;;;;;3.70;1.23;;;;;;;26.83;19.79;99949.91;5362505;26;20022;-78
2024/04/20 08:53:36;;;;;;;3.63;1.40;;;;;;;25.96;21.53;99947.25;5341574;26;20912;-78
2024/04/20 08:56:04;;;;;;;2.80;1.20;;;;;;;27.25;21.05;99970.84;5336441;26;19999;-79
2024/04/20 08:58:31;;;;;;;3.95;1.30;;;;;;;27.13;21.16;99980.63;5335726;26;20044;-78
2024/04/20 09:01:01;;;;;;;5.75;1.52;;;;;;;28.37;20.03;99972.84;5343238;26;20012;-79
2024/04/20 09:03:30;;;;;;;6.70;2.10;;;;;;;28.25;19.90;99953.28;5342716;26;20008;-79
2024/04/20 09:05:58;;;;;;;3.72;1.35;;;;;;;28.74;19.29;100001.09;5335869;26;20141;-79
2024/04/20 09:08:25;;;;;;;4.03;1.48;;;;;;;28.97;19.00;100001.94;5354575;26;20481;-79
2024/04/20 09:10:53;;;;;;;5.72;1.70;;;;;;;28.79;19.18;99940.91;5335560;26;20000;-78
2024/04/20 09:13:20;;;;;;;2.50;1.23;;;;;;;30.02;18.49;99970.72;5340212;26;20000;-79
2024/04/20 09:15:46;;;;;;;16.10;2.00;;;;;;;30.45;17.72;99987.50;5355082;26;20027;-80
2024/04/20 09:18:13;;;;;;;3.92;1.08;;;;;;;27.99;18.98;99963.38;5341842;26;20728;-81
2024/04/20 09:20:40;;;;;;;7.35;1.38;;;;;;;26.30;19.79;100016.88;5364896;26;20007;-80
2024/04/20 09:23:07;;;;;;;6.65;1.58;;;;;;;27.33;19.51;99979.09;5337120;26;20004;-79
2024/04/20 09:25:37;;;;;;;2.03;0.90;;;;;;;27.83;19.15;99980.66;5328779;26;21192;-80
2024/04/20 09:28:11;;;;;;;5.78;1.20;;;;;;;25.78;19.74;99987.59;5338648;26;20000;-81
2024/04/20 09:30:38;;;;;;;7.45;1.80;;;;;;;23.90;20.59;99983.75;5397453;26;20070;-81
2024/04/20 09:33:09;;;;;;;6.88;1.63;;;;;;;22.44;22.17;99991.31;5367762;26;20076;-81
2024/04/20 09:35:40;;;;;;;3.45;1.40;;;;;;;21.63;22.94;100051.16;5348189;26;20000;-82
2024/04/20 09:38:06;;;;;;;4.60;1.30;;;;;;;20.39;24.08;99980.44;5401243;26;20108;-81
2024/04/20 09:40:39;;;;;;;2.13;1.17;;;;;;;20.64;24.79;100053.25;5358311;26;20505;-78
2024/04/20 09:43:22;;;;;;;6.07;1.58;;;;;;;20.36;24.62;100043.97;5347109;26;20035;-80
2024/04/20 09:45:52;;;;;;;8.35;1.52;;;;;;;19.82;25.52;100078.03;5373023;26;20000;-77
2024/04/20 09:48:26;;;;;;;1.80;1.00;;;;;;;18.65;26.15;100024.66;5401261;26;20097;-77
2024/04/20 09:51:09;;;;;;;4.93;1.20;;;;;;;19.44;26.94;100032.97;5373346;26;20004;-76
2024/04/20 09:53:36;;;;;;;13.90;1.70;;;;;;;21.63;25.20;100051.16;5346368;26;20019;-77
2024/04/20 09:56:07;;;;;;;11.15;1.60;;;;;;;20.85;24.67;100055.88;5343299;26;20037;-77
2024/04/20 09:58:37;;;;;;;4.70;1.88;;;;;;;20.98;25.85;100078.16;5339729;26;20003;-77
2024/04/20 10:01:05;;;;;;;5.57;1.73;;;;;;;22.20;24.99;100004.94;5359369;26;20003;-80
2024/04/20 10:03:33;;;;;;;6.55;1.40;;;;;;;23.89;24.00;100067.06;5344582;26;20012;-79
2024/04/20 10:06:00;;;;;;;8.60;1.60;;;;;;;24.79;23.42;100032.28;5361118;26;20011;-77
2024/04/20 10:08:26;;;;;;;2.75;1.20;;;;;;;25.63;22.04;100017.97;5372577;26;20062;-77
2024/04/20 10:10:54;;;;;;;5.78;1.63;;;;;;;26.56;21.14;100003.50;5316322;26;20005;-77
2024/04/20 10:13:21;;;;;;;3.00;1.67;;;;;;;27.60;20.02;100028.72;5338924;26;20026;-77
2024/04/20 10:15:53;;;;;;;12.27;1.95;;;;;;;28.09;20.21;100042.75;5399463;26;20010;-81
2024/04/20 10:18:22;;;;;;;4.07;1.17;;;;;;;27.58;19.32;100017.31;5314609;26;20026;-78
2024/04/20 10:20:48;;;;;;;2.63;1.20;;;;;;;27.86;19.35;100060.63;5340152;26;20001;-78
2024/04/20 10:23:17;;;;;;;1.48;1.00;;;;;;;27.70;19.15;100074.31;5370556;26;19999;-78
2024/04/20 10:25:46;;;;;;;2.83;1.38;;;;;;;27.91;19.30;100063.78;5367903;26;20434;-78
2024/04/20 10:28:41;;;;;;;5.00;1.35;;;;;;;27.90;19.12;100071.91;5371590;26;20057;-78
2024/04/20 10:31:07;;;;;;;6.68;1.60;;;;;;;28.74;18.10;100082.31;5366779;26;20036;-76
2024/04/20 10:33:37;;;;;;;13.15;2.33;;;;;;;28.07;18.02;100095.50;5310700;26;20016;-76
2024/04/20 10:36:16;;;;;;;4.75;1.30;;;;;;;25.71;18.21;100090.22;5342115;26;20014;-75
2024/04/20 10:38:42;;;;;;;7.22;1.40;;;;;;;23.66;20.36;100112.72;5365249;26;20021;-76
2024/04/20 10:41:14;;;;;;;8.27;1.88;;;;;;;22.69;21.93;100130.50;5339588;26;20005;-77
2024/04/20 10:43:41;;;;;;;5.50;1.40;;;;;;;21.63;22.12;100096.19;5365119;26;20658;-75
2024/04/20 10:46:09;;;;;;;4.43;1.60;;;;;;;21.09;23.21;100143.75;5374394;26;20015;-77
2024/04/20 10:48:42;;;;;;;1.45;1.20;;;;;;;20.20;24.09;100099.28;5339919;26;20008;-78
2024/04/20 10:51:21;;;;;;;4.43;1.10;;;;;;;19.47;24.75;100115.53;5337713;26;20015;-77
2024/04/20 10:54:00;;;;;;;2.63;1.33;;;;;;;19.12;25.29;100154.72;5310509;26;20358;-77
2024/04/20 10:56:38;;;;;;;4.10;1.20;;;;;;;18.36;25.63;100110.94;5340155;26;20489;-75
2024/04/20 10:59:07;;;;;;;9.50;1.50;;;;;;;17.93;26.40;100094.00;5337284;26;20004;-79
2024/04/20 11:01:34;;;;;;;5.55;1.20;;;;;;;17.91;26.28;100108.97;5339563;26;20015;-75
2024/04/20 11:04:00;;;;;;;5.55;1.30;;;;;;;18.09;26.52;100154.91;5399559;26;20008;-74
2024/04/20 11:06:26;;;;;;;1.42;0.90;;;;;;;17.71;26.46;100142.09;5337484;26;20015;-76
2024/04/20 11:08:52;;;;;;;6.60;1.48;;;;;;;17.34;26.88;100121.38;5308713;26;20026;-75
2024/04/20 11:11:18;;;;;;;3.55;1.00;;;;;;;16.61;26.82;100077.09;5339812;26;20011;-75
2024/04/20 11:13:44;;;;;;;4.03;1.15;;;;;;;16.90;27.62;100134.94;5396384;26;19999;-76
2024/04/20 11:16:13;;;;;;;5.78;1.20;;;;;;;16.98;27.62;100133.88;5307325;26;20054;-75
2024/04/20 11:18:42;;;;;;;6.10;1.50;;;;;;;16.58;27.54;100113.13;5370811;26;20686;-76
2024/04/20 11:21:09;;;;;;;10.07;1.90;;;;;;;16.55;27.95;100138.56;5339338;26;20000;-74
2024/04/20 11:23:35;;;;;;;2.45;1.38;;;;;;;16.59;27.96;100180.50;5343672;26;20014;-75
2024/04/20 11:26:13;;;;;;;9.98;1.48;;;;;;;16.47;29.28;100160.69;5325726;26;20003;-77
2024/04/20 11:28:40;;;;;;;2.78;1.30;;;;;;;16.40;28.53;100146.88;5364963;26;20780;-75
2024/04/20 11:31:14;;;;;;;2.75;1.20;;;;;;;16.35;28.75;100191.63;5332340;26;20007;-79
2024/04/20 11:34:23;;;;;;;2.60;1.08;;;;;;;15.68;28.97;100108.44;5367196;26;20037;-80
2024/04/20 11:37:40;;;;;;;3.33;1.25;;;;;;;15.40;28.95;100068.94;5353930;26;20382;-78
2024/04/20 11:40:28;;;;;;;5.63;1.85;;;;;;;15.73;28.92;100145.94;5373485;26;20002;-77
2024/04/20 11:43:04;;;;;;;2.40;1.02;;;;;;;15.69;28.82;100159.16;5325012;26;20000;-80